sensor_id;sensor_type;location;lat;lon;timestamp;P1;durP1;ratioP1;P2;durP2;ratioP2
3245;SDS011;1635;48.000;10.582;2022-08-19T00:01:56;1.20;;;1.20;;
3245;SDS011;1635;48.000;10.582;2022-08-19T00:04:27;2.20;;;2.10;;
3245;SDS011;1635;48.000;10.582;2022-08-19T00:06:58;2.47;;;2.37;;
3245;SDS011;1635;48.000;10.582;2022-08-19T00:09:27;4.37;;;3.30;;
3245;SDS011;1635;48.000;10.582;2022-08-19T00:11:55;1.20;;;1.20;;
3245;SDS011;1635;48.000;10.582;2022-08-19T00:14:26;1.40;;;1.40;;
3245;SDS011;1635;48.000;10.582;2022-08-19T00:16:54;2.33;;;2.23;;
3245;SDS011;1635;48.000;10.582;2022-08-19T00:19:22;4.57;;;4.37;;
3245;SDS011;1635;48.000;10.582;2022-08-19T00:21:51;1.60;;;1.50;;
3245;SDS011;1635;48.000;10.582;2022-08-19T00:24:20;1.87;;;1.80;;
3245;SDS011;1635;48.000;10.582;2022-08-19T00:26:47;3.40;;;3.10;;
3245;SDS011;1635;48.000;10.582;2022-08-19T00:29:16;1.47;;;1.47;;
3245;SDS011;1635;48.000;10.582;2022-08-19T00:31:45;3.93;;;3.73;;
3245;SDS011;1635;48.000;10.582;2022-08-19T00:34:16;1.43;;;1.43;;
3245;SDS011;1635;48.000;10.582;2022-08-19T00:36:44;1.40;;;1.40;;
3245;SDS011;1635;48.000;10.582;2022-08-19T00:39:12;2.03;;;1.93;;
3245;SDS011;1635;48.000;10.582;2022-08-19T00:41:43;1.10;;;1.10;;
3245;SDS011;1635;48.000;10.582;2022-08-19T00:44:15;8.50;;;4.27;;
3245;SDS011;1635;48.000;10.582;2022-08-19T00:46:49;2.63;;;2.10;;
3245;SDS011;1635;48.000;10.582;2022-08-19T00:51:57;2.33;;;2.23;;
3245;SDS011;1635;48.000;10.582;2022-08-19T00:54:28;1.10;;;1.10;;
3245;SDS011;1635;48.000;10.582;2022-08-19T00:56:58;2.33;;;2.23;;
3245;SDS011;1635;48.000;10.582;2022-08-19T00:59:28;4.17;;;3.97;;
3245;SDS011;1635;48.000;10.582;2022-08-19T01:02:16;2.37;;;2.10;;
3245;SDS011;1635;48.000;10.582;2022-08-19T01:04:44;2.50;;;2.30;;
3245;SDS011;1635;48.000;10.582;2022-08-19T01:07:12;1.47;;;1.47;;
3245;SDS011;1635;48.000;10.582;2022-08-19T01:09:43;3.67;;;2.50;;
3245;SDS011;1635;48.000;10.582;2022-08-19T01:12:11;4.13;;;3.83;;
3245;SDS011;1635;48.000;10.582;2022-08-19T01:14:39;6.33;;;3.30;;
3245;SDS011;1635;48.000;10.582;2022-08-19T01:17:08;4.93;;;4.63;;
3245;SDS011;1635;48.000;10.582;2022-08-19T01:19:38;4.50;;;4.10;;
3245;SDS011;1635;48.000;10.582;2022-08-19T01:22:18;2.93;;;2.73;;
3245;SDS011;1635;48.000;10.582;2022-08-19T01:24:59;1.60;;;1.60;;
3245;SDS011;1635;48.000;10.582;2022-08-19T01:27:36;4.87;;;4.57;;
3245;SDS011;1635;48.000;10.582;2022-08-19T01:30:10;2.97;;;2.10;;
3245;SDS011;1635;48.000;10.582;2022-08-19T01:32:40;1.97;;;1.97;;
3245;SDS011;1635;48.000;10.582;2022-08-19T01:35:08;3.47;;;3.20;;
3245;SDS011;1635;48.000;10.582;2022-08-19T01:37:47;2.87;;;2.77;;
3245;SDS011;1635;48.000;10.582;2022-08-19T01:40:19;2.80;;;2.73;;
3245;SDS011;1635;48.000;10.582;2022-08-19T01:42:49;3.07;;;2.87;;
3245;SDS011;1635;48.000;10.582;2022-08-19T01:45:18;1.70;;;1.70;;
3245;SDS011;1635;48.000;10.582;2022-08-19T01:47:48;1.37;;;1.37;;
3245;SDS011;1635;48.000;10.582;2022-08-19T01:50:29;1.57;;;1.57;;
3245;SDS011;1635;48.000;10.582;2022-08-19T01:52:58;2.03;;;1.93;;
3245;SDS011;1635;48.000;10.582;2022-08-19T01:55:34;2.80;;;2.60;;
3245;SDS011;1635;48.000;10.582;2022-08-19T01:58:10;2.23;;;2.20;;
3245;SDS011;1635;48.000;10.582;2022-08-19T02:00:41;1.90;;;1.80;;
3245;SDS011;1635;48.000;10.582;2022-08-19T02:03:14;1.97;;;1.97;;
3245;SDS011;1635;48.000;10.582;2022-08-19T02:05:42;2.00;;;1.90;;
3245;SDS011;1635;48.000;10.582;2022-08-19T02:08:11;1.70;;;1.70;;
3245;SDS011;1635;48.000;10.582;2022-08-19T02:10:41;1.50;;;1.50;;
3245;SDS011;1635;48.000;10.582;2022-08-19T02:13:09;1.60;;;1.60;;
3245;SDS011;1635;48.000;10.582;2022-08-19T02:15:38;2.80;;;2.70;;
3245;SDS011;1635;48.000;10.582;2022-08-19T02:18:06;1.60;;;1.60;;
3245;SDS011;1635;48.000;10.582;2022-08-19T02:20:36;4.37;;;4.07;;
3245;SDS011;1635;48.000;10.582;2022-08-19T02:23:05;1.87;;;1.87;;
3245;SDS011;1635;48.000;10.582;2022-08-19T02:25:43;2.00;;;2.00;;
3245;SDS011;1635;48.000;10.582;2022-08-19T02:28:12;2.00;;;2.00;;
3245;SDS011;1635;48.000;10.582;2022-08-19T02:30:44;1.83;;;1.83;;
3245;SDS011;1635;48.000;10.582;2022-08-19T02:33:14;1.57;;;1.57;;
3245;SDS011;1635;48.000;10.582;2022-08-19T02:35:43;1.90;;;1.90;;
3245;SDS011;1635;48.000;10.582;2022-08-19T02:38:12;1.87;;;1.87;;
3245;SDS011;1635;48.000;10.582;2022-08-19T02:40:54;2.70;;;2.60;;
3245;SDS011;1635;48.000;10.582;2022-08-19T02:43:25;5.63;;;2.77;;
3245;SDS011;1635;48.000;10.582;2022-08-19T02:45:59;2.80;;;2.70;;
3245;SDS011;1635;48.000;10.582;2022-08-19T02:48:27;2.20;;;2.20;;
3245;SDS011;1635;48.000;10.582;2022-08-19T02:50:55;3.17;;;3.00;;
3245;SDS011;1635;48.000;10.582;2022-08-19T02:53:24;1.57;;;1.57;;
3245;SDS011;1635;48.000;10.582;2022-08-19T02:55:54;1.80;;;1.80;;
3245;SDS011;1635;48.000;10.582;2022-08-19T02:58:21;1.93;;;1.93;;
3245;SDS011;1635;48.000;10.582;2022-08-19T03:00:53;2.00;;;2.00;;
3245;SDS011;1635;48.000;10.582;2022-08-19T03:03:22;2.30;;;2.30;;
3245;SDS011;1635;48.000;10.582;2022-08-19T03:05:50;3.43;;;2.57;;
3245;SDS011;1635;48.000;10.582;2022-08-19T03:08:22;2.53;;;2.53;;
3245;SDS011;1635;48.000;10.582;2022-08-19T03:10:51;1.93;;;1.93;;
3245;SDS011;1635;48.000;10.582;2022-08-19T03:13:19;3.03;;;2.83;;
3245;SDS011;1635;48.000;10.582;2022-08-19T03:15:46;2.07;;;2.07;;
3245;SDS011;1635;48.000;10.582;2022-08-19T03:18:15;1.90;;;1.90;;
3245;SDS011;1635;48.000;10.582;2022-08-19T03:20:46;1.80;;;1.80;;
3245;SDS011;1635;48.000;10.582;2022-08-19T03:23:16;1.90;;;1.90;;
3245;SDS011;1635;48.000;10.582;2022-08-19T03:25:45;4.00;;;3.90;;
3245;SDS011;1635;48.000;10.582;2022-08-19T03:28:34;2.90;;;2.80;;
3245;SDS011;1635;48.000;10.582;2022-08-19T03:31:07;2.73;;;2.63;;
3245;SDS011;1635;48.000;10.582;2022-08-19T03:33:59;2.20;;;2.20;;
3245;SDS011;1635;48.000;10.582;2022-08-19T03:36:27;3.43;;;3.33;;
3245;SDS011;1635;48.000;10.582;2022-08-19T03:38:58;2.80;;;2.70;;
3245;SDS011;1635;48.000;10.582;2022-08-19T03:41:27;2.30;;;2.30;;
3245;SDS011;1635;48.000;10.582;2022-08-19T03:44:16;2.57;;;2.57;;
3245;SDS011;1635;48.000;10.582;2022-08-19T03:46:48;3.20;;;3.10;;
3245;SDS011;1635;48.000;10.582;2022-08-19T03:49:20;3.17;;;3.07;;
3245;SDS011;1635;48.000;10.582;2022-08-19T03:51:54;3.10;;;3.00;;
3245;SDS011;1635;48.000;10.582;2022-08-19T03:54:24;4.23;;;3.93;;
3245;SDS011;1635;48.000;10.582;2022-08-19T03:56:53;4.87;;;4.67;;
3245;SDS011;1635;48.000;10.582;2022-08-19T03:59:27;4.03;;;3.93;;
3245;SDS011;1635;48.000;10.582;2022-08-19T04:01:58;5.53;;;5.33;;
3245;SDS011;1635;48.000;10.582;2022-08-19T04:04:28;3.70;;;3.60;;
3245;SDS011;1635;48.000;10.582;2022-08-19T04:06:57;3.80;;;3.70;;
3245;SDS011;1635;48.000;10.582;2022-08-19T04:09:25;4.13;;;4.03;;
3245;SDS011;1635;48.000;10.582;2022-08-19T04:11:55;5.40;;;5.20;;
3245;SDS011;1635;48.000;10.582;2022-08-19T04:14:25;5.20;;;5.10;;
3245;SDS011;1635;48.000;10.582;2022-08-19T04:16:56;3.90;;;3.80;;
3245;SDS011;1635;48.000;10.582;2022-08-19T04:19:26;5.47;;;5.17;;
3245;SDS011;1635;48.000;10.582;2022-08-19T04:21:56;3.93;;;3.83;;
3245;SDS011;1635;48.000;10.582;2022-08-19T04:24:25;5.00;;;4.90;;
3245;SDS011;1635;48.000;10.582;2022-08-19T04:26:53;4.30;;;4.20;;
3245;SDS011;1635;48.000;10.582;2022-08-19T04:29:22;5.43;;;5.17;;
3245;SDS011;1635;48.000;10.582;2022-08-19T04:31:53;4.30;;;4.20;;
3245;SDS011;1635;48.000;10.582;2022-08-19T04:34:23;4.83;;;4.73;;
3245;SDS011;1635;48.000;10.582;2022-08-19T04:36:53;4.87;;;4.77;;
3245;SDS011;1635;48.000;10.582;2022-08-19T04:39:23;4.00;;;3.90;;
3245;SDS011;1635;48.000;10.582;2022-08-19T04:42:15;4.33;;;4.23;;
3245;SDS011;1635;48.000;10.582;2022-08-19T04:45:04;3.50;;;3.40;;
3245;SDS011;1635;48.000;10.582;2022-08-19T04:47:36;4.97;;;4.87;;
3245;SDS011;1635;48.000;10.582;2022-08-19T04:50:24;3.90;;;3.80;;
3245;SDS011;1635;48.000;10.582;2022-08-19T04:52:53;4.27;;;4.17;;
3245;SDS011;1635;48.000;10.582;2022-08-19T04:55:22;3.63;;;3.53;;
3245;SDS011;1635;48.000;10.582;2022-08-19T04:57:53;5.00;;;4.80;;
3245;SDS011;1635;48.000;10.582;2022-08-19T05:00:21;4.57;;;4.47;;
3245;SDS011;1635;48.000;10.582;2022-08-19T05:02:49;4.47;;;4.37;;
3245;SDS011;1635;48.000;10.582;2022-08-19T05:05:17;4.60;;;4.50;;
3245;SDS011;1635;48.000;10.582;2022-08-19T05:07:45;5.30;;;5.20;;
3245;SDS011;1635;48.000;10.582;2022-08-19T05:10:13;5.50;;;5.40;;
3245;SDS011;1635;48.000;10.582;2022-08-19T05:12:41;4.70;;;4.60;;
3245;SDS011;1635;48.000;10.582;2022-08-19T05:15:09;4.77;;;4.67;;
3245;SDS011;1635;48.000;10.582;2022-08-19T05:17:37;4.83;;;4.73;;
3245;SDS011;1635;48.000;10.582;2022-08-19T05:20:06;4.80;;;4.70;;
3245;SDS011;1635;48.000;10.582;2022-08-19T05:22:53;4.90;;;4.80;;
3245;SDS011;1635;48.000;10.582;2022-08-19T05:25:21;4.80;;;4.70;;
3245;SDS011;1635;48.000;10.582;2022-08-19T05:27:49;9.80;;;7.83;;
3245;SDS011;1635;48.000;10.582;2022-08-19T05:30:18;4.93;;;4.83;;
3245;SDS011;1635;48.000;10.582;2022-08-19T05:33:06;4.77;;;4.67;;
3245;SDS011;1635;48.000;10.582;2022-08-19T05:35:38;4.10;;;4.00;;
3245;SDS011;1635;48.000;10.582;2022-08-19T05:38:07;4.50;;;4.40;;
3245;SDS011;1635;48.000;10.582;2022-08-19T05:40:36;4.90;;;4.80;;
3245;SDS011;1635;48.000;10.582;2022-08-19T05:43:06;4.50;;;4.40;;
3245;SDS011;1635;48.000;10.582;2022-08-19T05:45:39;4.10;;;4.00;;
3245;SDS011;1635;48.000;10.582;2022-08-19T05:48:11;3.93;;;3.83;;
3245;SDS011;1635;48.000;10.582;2022-08-19T05:50:41;4.73;;;4.63;;
3245;SDS011;1635;48.000;10.582;2022-08-19T05:53:08;4.33;;;4.20;;
3245;SDS011;1635;48.000;10.582;2022-08-19T05:55:37;4.33;;;4.23;;
3245;SDS011;1635;48.000;10.582;2022-08-19T05:58:05;7.43;;;7.03;;
3245;SDS011;1635;48.000;10.582;2022-08-19T06:00:36;5.27;;;5.17;;
3245;SDS011;1635;48.000;10.582;2022-08-19T06:03:04;9.40;;;5.80;;
3245;SDS011;1635;48.000;10.582;2022-08-19T06:05:40;4.70;;;4.60;;
3245;SDS011;1635;48.000;10.582;2022-08-19T06:08:17;5.60;;;5.47;;
3245;SDS011;1635;48.000;10.582;2022-08-19T06:10:45;5.70;;;5.20;;
3245;SDS011;1635;48.000;10.582;2022-08-19T06:13:13;4.80;;;4.70;;
3245;SDS011;1635;48.000;10.582;2022-08-19T06:15:40;5.00;;;4.90;;
3245;SDS011;1635;48.000;10.582;2022-08-19T06:18:10;4.30;;;4.20;;
3245;SDS011;1635;48.000;10.582;2022-08-19T06:20:40;4.60;;;4.50;;
3245;SDS011;1635;48.000;10.582;2022-08-19T06:23:21;4.10;;;4.00;;
3245;SDS011;1635;48.000;10.582;2022-08-19T06:25:50;4.10;;;4.00;;
3245;SDS011;1635;48.000;10.582;2022-08-19T06:28:18;5.00;;;4.90;;
3245;SDS011;1635;48.000;10.582;2022-08-19T06:30:47;4.80;;;4.70;;
3245;SDS011;1635;48.000;10.582;2022-08-19T06:33:14;4.20;;;4.10;;
3245;SDS011;1635;48.000;10.582;2022-08-19T06:35:42;3.90;;;3.80;;
3245;SDS011;1635;48.000;10.582;2022-08-19T06:38:15;4.20;;;4.10;;
3245;SDS011;1635;48.000;10.582;2022-08-19T06:40:43;5.30;;;5.20;;
3245;SDS011;1635;48.000;10.582;2022-08-19T06:43:11;4.40;;;4.30;;
3245;SDS011;1635;48.000;10.582;2022-08-19T06:45:39;6.33;;;6.13;;
3245;SDS011;1635;48.000;10.582;2022-08-19T06:48:07;5.57;;;5.47;;
3245;SDS011;1635;48.000;10.582;2022-08-19T06:50:37;5.83;;;5.70;;
3245;SDS011;1635;48.000;10.582;2022-08-19T06:53:07;7.30;;;7.10;;
3245;SDS011;1635;48.000;10.582;2022-08-19T06:55:35;13.83;;;5.80;;
3245;SDS011;1635;48.000;10.582;2022-08-19T06:58:04;8.30;;;7.93;;
3245;SDS011;1635;48.000;10.582;2022-08-19T07:00:32;6.97;;;6.57;;
3245;SDS011;1635;48.000;10.582;2022-08-19T07:03:01;5.70;;;5.60;;
3245;SDS011;1635;48.000;10.582;2022-08-19T07:05:38;7.47;;;7.27;;
3245;SDS011;1635;48.000;10.582;2022-08-19T07:08:13;6.70;;;6.57;;
3245;SDS011;1635;48.000;10.582;2022-08-19T07:10:44;5.63;;;5.53;;
3245;SDS011;1635;48.000;10.582;2022-08-19T07:13:13;5.90;;;5.80;;
3245;SDS011;1635;48.000;10.582;2022-08-19T07:15:40;6.67;;;6.40;;
3245;SDS011;1635;48.000;10.582;2022-08-19T07:18:09;5.33;;;5.23;;
3245;SDS011;1635;48.000;10.582;2022-08-19T07:20:37;5.80;;;5.70;;
3245;SDS011;1635;48.000;10.582;2022-08-19T07:23:09;6.00;;;5.83;;
3245;SDS011;1635;48.000;10.582;2022-08-19T07:25:43;6.43;;;6.33;;
3245;SDS011;1635;48.000;10.582;2022-08-19T07:28:19;6.37;;;6.27;;
3245;SDS011;1635;48.000;10.582;2022-08-19T07:30:50;5.90;;;5.80;;
3245;SDS011;1635;48.000;10.582;2022-08-19T07:33:19;4.83;;;4.73;;
3245;SDS011;1635;48.000;10.582;2022-08-19T07:35:47;7.40;;;7.20;;
3245;SDS011;1635;48.000;10.582;2022-08-19T07:38:17;5.40;;;5.30;;
3245;SDS011;1635;48.000;10.582;2022-08-19T07:40:45;4.63;;;4.53;;
3245;SDS011;1635;48.000;10.582;2022-08-19T07:43:14;7.33;;;7.13;;
3245;SDS011;1635;48.000;10.582;2022-08-19T07:45:57;4.40;;;4.30;;
3245;SDS011;1635;48.000;10.582;2022-08-19T07:48:26;4.20;;;4.10;;
3245;SDS011;1635;48.000;10.582;2022-08-19T07:50:56;5.30;;;5.20;;
3245;SDS011;1635;48.000;10.582;2022-08-19T07:53:29;3.57;;;3.47;;
3245;SDS011;1635;48.000;10.582;2022-08-19T07:56:04;4.27;;;4.17;;
3245;SDS011;1635;48.000;10.582;2022-08-19T07:58:34;3.53;;;3.43;;
3245;SDS011;1635;48.000;10.582;2022-08-19T08:01:05;4.00;;;3.90;;
3245;SDS011;1635;48.000;10.582;2022-08-19T08:03:35;6.17;;;5.97;;
3245;SDS011;1635;48.000;10.582;2022-08-19T08:06:23;3.60;;;3.50;;
3245;SDS011;1635;48.000;10.582;2022-08-19T08:09:09;3.33;;;3.23;;
3245;SDS011;1635;48.000;10.582;2022-08-19T08:14:24;3.57;;;3.47;;
3245;SDS011;1635;48.000;10.582;2022-08-19T08:17:02;4.60;;;4.20;;
3245;SDS011;1635;48.000;10.582;2022-08-19T08:19:37;4.63;;;4.43;;
3245;SDS011;1635;48.000;10.582;2022-08-19T08:22:09;6.20;;;5.87;;
3245;SDS011;1635;48.000;10.582;2022-08-19T08:25:08;3.67;;;3.57;;
3245;SDS011;1635;48.000;10.582;2022-08-19T08:27:42;3.47;;;3.37;;
3245;SDS011;1635;48.000;10.582;2022-08-19T08:30:16;3.00;;;2.90;;
3245;SDS011;1635;48.000;10.582;2022-08-19T08:32:49;3.50;;;3.40;;
3245;SDS011;1635;48.000;10.582;2022-08-19T08:35:19;4.37;;;4.27;;
3245;SDS011;1635;48.000;10.582;2022-08-19T08:37:49;4.67;;;4.57;;
3245;SDS011;1635;48.000;10.582;2022-08-19T08:45:41;3.90;;;3.80;;
3245;SDS011;1635;48.000;10.582;2022-08-19T08:48:30;5.50;;;5.30;;
3245;SDS011;1635;48.000;10.582;2022-08-19T08:51:04;5.43;;;5.13;;
3245;SDS011;1635;48.000;10.582;2022-08-19T08:53:47;4.70;;;4.60;;
3245;SDS011;1635;48.000;10.582;2022-08-19T08:56:23;4.23;;;4.13;;
3245;SDS011;1635;48.000;10.582;2022-08-19T08:58:58;5.27;;;5.07;;
3245;SDS011;1635;48.000;10.582;2022-08-19T09:01:37;4.53;;;4.43;;
3245;SDS011;1635;48.000;10.582;2022-08-19T09:04:05;5.90;;;5.70;;
3245;SDS011;1635;48.000;10.582;2022-08-19T09:09:51;5.70;;;5.60;;
3245;SDS011;1635;48.000;10.582;2022-08-19T09:12:38;5.73;;;5.63;;
3245;SDS011;1635;48.000;10.582;2022-08-19T09:15:31;6.43;;;6.23;;
3245;SDS011;1635;48.000;10.582;2022-08-19T09:18:07;6.37;;;6.27;;
3245;SDS011;1635;48.000;10.582;2022-08-19T09:20:46;6.40;;;6.30;;
3245;SDS011;1635;48.000;10.582;2022-08-19T09:23:15;7.13;;;7.03;;
3245;SDS011;1635;48.000;10.582;2022-08-19T09:25:53;7.90;;;7.70;;
3245;SDS011;1635;48.000;10.582;2022-08-19T09:28:21;7.17;;;7.03;;
3245;SDS011;1635;48.000;10.582;2022-08-19T09:30:53;6.50;;;6.40;;
3245;SDS011;1635;48.000;10.582;2022-08-19T09:33:21;8.10;;;7.90;;
3245;SDS011;1635;48.000;10.582;2022-08-19T09:35:49;8.47;;;8.03;;
3245;SDS011;1635;48.000;10.582;2022-08-19T09:38:20;6.83;;;6.73;;
3245;SDS011;1635;48.000;10.582;2022-08-19T09:40:48;6.50;;;6.40;;
3245;SDS011;1635;48.000;10.582;2022-08-19T09:43:17;5.73;;;5.63;;
3245;SDS011;1635;48.000;10.582;2022-08-19T09:46:00;7.03;;;6.83;;
3245;SDS011;1635;48.000;10.582;2022-08-19T09:48:29;6.63;;;6.47;;
3245;SDS011;1635;48.000;10.582;2022-08-19T09:51:01;5.03;;;4.93;;
3245;SDS011;1635;48.000;10.582;2022-08-19T09:53:38;6.27;;;6.03;;
3245;SDS011;1635;48.000;10.582;2022-08-19T09:56:06;4.53;;;4.43;;
3245;SDS011;1635;48.000;10.582;2022-08-19T09:58:36;4.40;;;4.30;;
3245;SDS011;1635;48.000;10.582;2022-08-19T10:01:05;9.73;;;8.87;;
3245;SDS011;1635;48.000;10.582;2022-08-19T10:03:34;5.83;;;5.73;;
3245;SDS011;1635;48.000;10.582;2022-08-19T10:06:04;5.23;;;5.13;;
3245;SDS011;1635;48.000;10.582;2022-08-19T10:08:41;4.00;;;3.90;;
3245;SDS011;1635;48.000;10.582;2022-08-19T10:11:17;3.90;;;3.80;;
3245;SDS011;1635;48.000;10.582;2022-08-19T10:14:03;7.60;;;7.40;;
3245;SDS011;1635;48.000;10.582;2022-08-19T10:16:33;4.93;;;4.83;;
3245;SDS011;1635;48.000;10.582;2022-08-19T10:19:06;4.93;;;4.83;;
3245;SDS011;1635;48.000;10.582;2022-08-19T10:21:33;5.73;;;5.53;;
3245;SDS011;1635;48.000;10.582;2022-08-19T10:24:03;4.30;;;4.20;;
3245;SDS011;1635;48.000;10.582;2022-08-19T10:26:34;5.47;;;5.37;;
3245;SDS011;1635;48.000;10.582;2022-08-19T10:29:06;5.47;;;5.37;;
3245;SDS011;1635;48.000;10.582;2022-08-19T10:31:35;5.20;;;5.10;;
3245;SDS011;1635;48.000;10.582;2022-08-19T10:34:24;4.97;;;4.87;;
3245;SDS011;1635;48.000;10.582;2022-08-19T10:36:55;4.90;;;4.80;;
3245;SDS011;1635;48.000;10.582;2022-08-19T10:39:27;4.87;;;4.77;;
3245;SDS011;1635;48.000;10.582;2022-08-19T10:41:59;4.67;;;4.57;;
3245;SDS011;1635;48.000;10.582;2022-08-19T10:44:31;4.40;;;4.30;;
3245;SDS011;1635;48.000;10.582;2022-08-19T10:46:59;4.70;;;4.60;;
3245;SDS011;1635;48.000;10.582;2022-08-19T10:49:26;4.87;;;4.77;;
3245;SDS011;1635;48.000;10.582;2022-08-19T10:51:55;5.37;;;5.27;;
3245;SDS011;1635;48.000;10.582;2022-08-19T10:54:45;5.00;;;4.90;;
3245;SDS011;1635;48.000;10.582;2022-08-19T10:57:35;4.20;;;4.10;;
3245;SDS011;1635;48.000;10.582;2022-08-19T11:00:23;3.97;;;3.87;;
3245;SDS011;1635;48.000;10.582;2022-08-19T11:02:51;4.93;;;3.60;;
3245;SDS011;1635;48.000;10.582;2022-08-19T11:05:19;3.33;;;3.23;;
3245;SDS011;1635;48.000;10.582;2022-08-19T11:07:51;3.50;;;3.40;;
3245;SDS011;1635;48.000;10.582;2022-08-19T11:10:19;3.40;;;3.30;;
3245;SDS011;1635;48.000;10.582;2022-08-19T11:12:48;2.60;;;2.60;;
3245;SDS011;1635;48.000;10.582;2022-08-19T11:15:19;2.63;;;2.63;;
3245;SDS011;1635;48.000;10.582;2022-08-19T11:17:48;2.50;;;2.40;;
3245;SDS011;1635;48.000;10.582;2022-08-19T11:20:21;2.57;;;2.50;;
3245;SDS011;1635;48.000;10.582;2022-08-19T11:22:52;2.67;;;2.67;;
3245;SDS011;1635;48.000;10.582;2022-08-19T11:25:23;2.20;;;2.20;;
3245;SDS011;1635;48.000;10.582;2022-08-19T11:27:51;3.40;;;3.30;;
3245;SDS011;1635;48.000;10.582;2022-08-19T11:30:19;3.80;;;3.70;;
3245;SDS011;1635;48.000;10.582;2022-08-19T11:32:47;2.97;;;2.87;;
3245;SDS011;1635;48.000;10.582;2022-08-19T11:35:16;2.60;;;2.60;;
3245;SDS011;1635;48.000;10.582;2022-08-19T11:37:47;3.57;;;3.47;;
3245;SDS011;1635;48.000;10.582;2022-08-19T11:40:15;3.20;;;3.10;;
3245;SDS011;1635;48.000;10.582;2022-08-19T11:42:42;2.50;;;2.43;;
3245;SDS011;1635;48.000;10.582;2022-08-19T11:45:24;3.27;;;3.20;;
3245;SDS011;1635;48.000;10.582;2022-08-19T11:47:54;5.03;;;4.73;;
3245;SDS011;1635;48.000;10.582;2022-08-19T11:50:23;3.03;;;2.93;;
3245;SDS011;1635;48.000;10.582;2022-08-19T11:52:55;2.80;;;2.70;;
3245;SDS011;1635;48.000;10.582;2022-08-19T11:55:23;3.23;;;3.13;;
3245;SDS011;1635;48.000;10.582;2022-08-19T11:57:52;2.40;;;2.40;;
3245;SDS011;1635;48.000;10.582;2022-08-19T12:00:20;4.10;;;4.00;;
3245;SDS011;1635;48.000;10.582;2022-08-19T12:02:49;2.60;;;2.60;;
3245;SDS011;1635;48.000;10.582;2022-08-19T12:05:16;3.60;;;3.50;;
3245;SDS011;1635;48.000;10.582;2022-08-19T12:07:45;4.57;;;4.37;;
3245;SDS011;1635;48.000;10.582;2022-08-19T12:10:15;2.73;;;2.73;;
3245;SDS011;1635;48.000;10.582;2022-08-19T12:12:46;5.00;;;4.77;;
3245;SDS011;1635;48.000;10.582;2022-08-19T12:15:25;3.30;;;3.20;;
3245;SDS011;1635;48.000;10.582;2022-08-19T12:18:03;5.70;;;3.53;;
3245;SDS011;1635;48.000;10.582;2022-08-19T12:20:34;3.20;;;3.10;;
3245;SDS011;1635;48.000;10.582;2022-08-19T12:23:03;5.67;;;5.47;;
3245;SDS011;1635;48.000;10.582;2022-08-19T12:25:33;4.33;;;4.20;;
3245;SDS011;1635;48.000;10.582;2022-08-19T12:28:02;4.40;;;4.20;;
3245;SDS011;1635;48.000;10.582;2022-08-19T12:30:31;3.80;;;3.70;;
3245;SDS011;1635;48.000;10.582;2022-08-19T12:32:58;3.50;;;3.40;;
3245;SDS011;1635;48.000;10.582;2022-08-19T12:35:27;2.97;;;2.97;;
3245;SDS011;1635;48.000;10.582;2022-08-19T12:37:55;6.40;;;5.87;;
3245;SDS011;1635;48.000;10.582;2022-08-19T12:40:23;3.70;;;3.60;;
3245;SDS011;1635;48.000;10.582;2022-08-19T12:42:53;4.47;;;4.17;;
3245;SDS011;1635;48.000;10.582;2022-08-19T12:45:20;4.57;;;4.40;;
3245;SDS011;1635;48.000;10.582;2022-08-19T12:47:49;4.73;;;4.53;;
3245;SDS011;1635;48.000;10.582;2022-08-19T12:50:20;6.00;;;5.80;;
3245;SDS011;1635;48.000;10.582;2022-08-19T12:52:49;5.47;;;5.30;;
3245;SDS011;1635;48.000;10.582;2022-08-19T12:55:16;4.27;;;4.17;;
3245;SDS011;1635;48.000;10.582;2022-08-19T12:57:45;5.97;;;5.77;;
3245;SDS011;1635;48.000;10.582;2022-08-19T13:00:16;4.80;;;4.70;;
3245;SDS011;1635;48.000;10.582;2022-08-19T13:02:49;5.20;;;5.10;;
3245;SDS011;1635;48.000;10.582;2022-08-19T13:05:20;6.87;;;6.60;;
3245;SDS011;1635;48.000;10.582;2022-08-19T13:07:52;5.30;;;5.20;;
3245;SDS011;1635;48.000;10.582;2022-08-19T13:10:24;5.30;;;5.20;;
3245;SDS011;1635;48.000;10.582;2022-08-19T13:12:55;6.27;;;6.07;;
3245;SDS011;1635;48.000;10.582;2022-08-19T13:15:26;6.03;;;5.80;;
3245;SDS011;1635;48.000;10.582;2022-08-19T13:17:57;6.10;;;5.90;;
3245;SDS011;1635;48.000;10.582;2022-08-19T13:20:26;9.47;;;8.53;;
3245;SDS011;1635;48.000;10.582;2022-08-19T13:22:55;4.87;;;4.77;;
3245;SDS011;1635;48.000;10.582;2022-08-19T13:25:24;5.13;;;5.03;;
3245;SDS011;1635;48.000;10.582;2022-08-19T13:27:52;4.93;;;4.83;;
3245;SDS011;1635;48.000;10.582;2022-08-19T13:30:21;5.67;;;5.57;;
3245;SDS011;1635;48.000;10.582;2022-08-19T13:33:08;5.60;;;5.40;;
3245;SDS011;1635;48.000;10.582;2022-08-19T13:35:50;6.00;;;5.80;;
3245;SDS011;1635;48.000;10.582;2022-08-19T13:38:24;5.30;;;5.20;;
3245;SDS011;1635;48.000;10.582;2022-08-19T13:40:52;6.00;;;5.80;;
3245;SDS011;1635;48.000;10.582;2022-08-19T13:43:22;5.67;;;5.57;;
3245;SDS011;1635;48.000;10.582;2022-08-19T13:45:53;5.10;;;5.00;;
3245;SDS011;1635;48.000;10.582;2022-08-19T13:48:25;6.03;;;5.93;;
3245;SDS011;1635;48.000;10.582;2022-08-19T13:50:53;5.70;;;5.60;;
3245;SDS011;1635;48.000;10.582;2022-08-19T13:53:22;7.27;;;6.97;;
3245;SDS011;1635;48.000;10.582;2022-08-19T13:55:51;7.00;;;6.90;;
3245;SDS011;1635;48.000;10.582;2022-08-19T13:58:20;6.70;;;6.60;;
3245;SDS011;1635;48.000;10.582;2022-08-19T14:00:50;7.47;;;7.27;;
3245;SDS011;1635;48.000;10.582;2022-08-19T14:03:17;8.40;;;8.10;;
3245;SDS011;1635;48.000;10.582;2022-08-19T14:05:47;7.33;;;7.23;;
3245;SDS011;1635;48.000;10.582;2022-08-19T14:08:15;7.80;;;7.60;;
3245;SDS011;1635;48.000;10.582;2022-08-19T14:10:44;9.03;;;8.83;;
3245;SDS011;1635;48.000;10.582;2022-08-19T14:13:16;7.43;;;7.23;;
3245;SDS011;1635;48.000;10.582;2022-08-19T14:15:45;7.83;;;7.53;;
3245;SDS011;1635;48.000;10.582;2022-08-19T14:18:15;6.30;;;6.20;;
3245;SDS011;1635;48.000;10.582;2022-08-19T14:20:45;5.40;;;5.30;;
3245;SDS011;1635;48.000;10.582;2022-08-19T14:23:12;6.57;;;6.47;;
3245;SDS011;1635;48.000;10.582;2022-08-19T14:25:41;8.17;;;7.87;;
3245;SDS011;1635;48.000;10.582;2022-08-19T14:28:09;6.77;;;6.67;;
3245;SDS011;1635;48.000;10.582;2022-08-19T14:30:38;6.40;;;6.00;;
3245;SDS011;1635;48.000;10.582;2022-08-19T14:33:07;6.13;;;6.03;;
3245;SDS011;1635;48.000;10.582;2022-08-19T14:35:36;7.63;;;7.43;;
3245;SDS011;1635;48.000;10.582;2022-08-19T14:38:05;5.87;;;5.77;;
3245;SDS011;1635;48.000;10.582;2022-08-19T14:40:40;6.10;;;5.63;;
3245;SDS011;1635;48.000;10.582;2022-08-19T14:43:09;6.33;;;6.23;;
3245;SDS011;1635;48.000;10.582;2022-08-19T14:45:37;7.30;;;7.00;;
3245;SDS011;1635;48.000;10.582;2022-08-19T14:48:07;6.77;;;6.67;;
3245;SDS011;1635;48.000;10.582;2022-08-19T14:50:44;8.47;;;8.13;;
3245;SDS011;1635;48.000;10.582;2022-08-19T14:53:15;5.20;;;5.10;;
3245;SDS011;1635;48.000;10.582;2022-08-19T14:55:46;5.70;;;5.50;;
3245;SDS011;1635;48.000;10.582;2022-08-19T14:58:14;6.73;;;6.53;;
3245;SDS011;1635;48.000;10.582;2022-08-19T15:00:58;6.10;;;6.00;;
3245;SDS011;1635;48.000;10.582;2022-08-19T15:03:27;6.57;;;6.47;;
3245;SDS011;1635;48.000;10.582;2022-08-19T15:05:55;5.17;;;5.07;;
3245;SDS011;1635;48.000;10.582;2022-08-19T15:08:26;5.00;;;4.90;;
3245;SDS011;1635;48.000;10.582;2022-08-19T15:10:56;6.53;;;6.17;;
3245;SDS011;1635;48.000;10.582;2022-08-19T15:13:25;4.43;;;4.33;;
3245;SDS011;1635;48.000;10.582;2022-08-19T15:15:54;4.80;;;4.70;;
3245;SDS011;1635;48.000;10.582;2022-08-19T15:18:22;5.10;;;5.00;;
3245;SDS011;1635;48.000;10.582;2022-08-19T15:20:51;5.47;;;5.37;;
3245;SDS011;1635;48.000;10.582;2022-08-19T15:23:19;4.13;;;4.03;;
3245;SDS011;1635;48.000;10.582;2022-08-19T15:25:48;3.87;;;3.77;;
3245;SDS011;1635;48.000;10.582;2022-08-19T15:28:22;3.97;;;3.87;;
3245;SDS011;1635;48.000;10.582;2022-08-19T15:30:51;4.03;;;3.83;;
3245;SDS011;1635;48.000;10.582;2022-08-19T15:33:20;3.13;;;3.03;;
3245;SDS011;1635;48.000;10.582;2022-08-19T15:35:48;3.90;;;3.80;;
3245;SDS011;1635;48.000;10.582;2022-08-19T15:38:21;3.20;;;3.10;;
3245;SDS011;1635;48.000;10.582;2022-08-19T15:40:51;2.10;;;2.10;;